createdAt,value
2017-06-16T00:01:19.711Z,19.14
2017-06-16T00:03:21.813Z,19.23
2017-06-16T00:05:23.675Z,19.15
2017-06-16T00:07:25.915Z,19.21
2017-06-16T00:09:27.651Z,19.02
2017-06-16T00:11:29.994Z,19.20
2017-06-16T00:13:31.847Z,19.10
2017-06-16T00:15:33.726Z,19.08
2017-06-16T00:17:35.476Z,18.98
2017-06-16T00:19:37.257Z,18.99
2017-06-16T00:21:39.637Z,18.99
2017-06-16T00:23:41.496Z,19.05
2017-06-16T00:25:43.472Z,18.99
2017-06-16T00:27:45.255Z,18.97
2017-06-16T00:29:47.172Z,18.90
2017-06-16T00:31:49.612Z,18.70
2017-06-16T00:33:51.773Z,18.73
2017-06-16T00:35:54.040Z,18.72
2017-06-16T00:37:55.976Z,18.72
2017-06-16T00:39:57.861Z,18.68
2017-06-16T00:41:59.625Z,18.74
2017-06-16T00:44:01.394Z,18.77
2017-06-16T00:46:03.208Z,18.67
2017-06-16T00:48:05.637Z,18.70
2017-06-16T00:50:07.418Z,18.67
2017-06-16T00:52:09.375Z,18.61
2017-06-16T00:54:11.229Z,18.61
2017-06-16T00:56:13.052Z,18.55
2017-06-16T00:58:15.005Z,18.50
2017-06-16T01:00:16.803Z,18.54
2017-06-16T01:02:18.610Z,18.54
2017-06-16T01:04:20.404Z,18.44
2017-06-16T01:06:22.279Z,18.34
2017-06-16T01:08:24.126Z,18.39
2017-06-16T01:10:25.941Z,18.42
2017-06-16T01:12:27.910Z,18.36
2017-06-16T01:14:29.839Z,18.34
2017-06-16T01:16:31.654Z,18.28
2017-06-16T01:18:33.440Z,18.24
2017-06-16T01:20:35.227Z,18.25
2017-06-16T01:22:37.035Z,18.33
2017-06-16T01:24:39.154Z,18.31
2017-06-16T01:26:41.140Z,18.24
2017-06-16T01:28:42.978Z,18.29
2017-06-16T01:30:45.303Z,18.34
2017-06-16T01:32:47.131Z,18.29
2017-06-16T01:34:49.486Z,18.36
2017-06-16T01:36:51.930Z,18.31
2017-06-16T01:38:53.703Z,18.36
2017-06-16T01:40:56.178Z,18.39
2017-06-16T01:42:57.942Z,18.44
2017-06-16T01:44:59.799Z,18.36
2017-06-16T01:47:01.634Z,18.39
2017-06-16T01:49:03.718Z,18.34
2017-06-16T01:51:05.483Z,18.36
2017-06-16T01:53:07.655Z,18.29
2017-06-16T01:55:09.459Z,18.33
2017-06-16T01:57:11.595Z,18.39
2017-06-16T01:59:13.539Z,18.25
2017-06-16T02:01:15.329Z,18.22
2017-06-16T02:03:17.546Z,18.24
2017-06-16T02:05:19.692Z,18.19
2017-06-16T02:07:21.995Z,18.17
2017-06-16T02:09:23.689Z,18.07
2017-06-16T02:11:26.151Z,18.19
2017-06-16T02:13:28.074Z,18.07
2017-06-16T02:15:30.426Z,17.99
2017-06-16T02:17:32.251Z,17.92
2017-06-16T02:19:34.011Z,17.94
2017-06-16T02:21:35.784Z,18.04
2017-06-16T02:23:37.735Z,18.02
2017-06-16T02:25:40.816Z,17.94
2017-06-16T02:27:42.637Z,17.89
2017-06-16T02:29:44.399Z,17.89
2017-06-16T02:31:46.587Z,17.89
2017-06-16T02:33:48.770Z,17.81
2017-06-16T02:35:50.490Z,17.81
2017-06-16T02:37:52.820Z,17.79
2017-06-16T02:39:54.632Z,17.76
2017-06-16T02:41:56.964Z,17.74
2017-06-16T02:43:58.829Z,17.73
2017-06-16T02:46:00.881Z,17.74
2017-06-16T02:48:02.862Z,17.78
2017-06-16T02:50:04.596Z,17.79
2017-06-16T02:52:06.630Z,17.81
2017-06-16T02:54:08.454Z,17.74
2017-06-16T02:56:11.210Z,17.79
2017-06-16T02:58:12.980Z,17.79
2017-06-16T03:00:15.185Z,17.78
2017-06-16T03:02:16.971Z,17.64
2017-06-16T03:04:18.840Z,17.55
2017-06-16T03:06:21.059Z,17.54
2017-06-16T03:08:22.892Z,17.51
2017-06-16T03:10:25.189Z,17.59
2017-06-16T03:12:27.321Z,17.32
2017-06-16T03:14:29.719Z,17.43
2017-06-16T03:16:31.980Z,17.41
2017-06-16T03:18:33.837Z,17.46
2017-06-16T03:20:35.702Z,17.53
2017-06-16T03:22:37.486Z,17.47
2017-06-16T03:24:39.659Z,17.50
2017-06-16T03:26:41.988Z,17.53
2017-06-16T03:28:43.802Z,17.50
2017-06-16T03:30:45.642Z,17.48
2017-06-16T03:32:47.353Z,17.53
2017-06-16T03:34:49.263Z,17.46
2017-06-16T03:36:51.056Z,17.48
2017-06-16T03:38:53.036Z,17.59
2017-06-16T03:40:54.946Z,17.67
2017-06-16T03:42:56.816Z,17.62
2017-06-16T03:44:58.754Z,17.67
2017-06-16T03:47:00.643Z,17.67
2017-06-16T03:49:02.478Z,17.53
2017-06-16T03:51:04.365Z,17.78
2017-06-16T03:53:06.347Z,17.76
2017-06-16T03:55:08.557Z,17.82
2017-06-16T03:57:10.911Z,17.76
2017-06-16T03:59:12.676Z,17.88
2017-06-16T04:01:14.555Z,17.95
2017-06-16T04:03:16.337Z,17.91
2017-06-16T04:05:18.249Z,18.06
2017-06-16T04:07:20.386Z,17.89
2017-06-16T04:09:22.181Z,17.87
2017-06-16T04:11:24.265Z,17.99
2017-06-16T04:13:26.061Z,17.95
2017-06-16T04:15:27.787Z,18.00
2017-06-16T04:17:29.636Z,18.12
2017-06-16T04:19:32.153Z,18.28
2017-06-16T04:21:34.203Z,18.28
2017-06-16T04:23:36.018Z,18.22
2017-06-16T04:25:38.388Z,18.17
2017-06-16T04:27:40.650Z,18.13
2017-06-16T04:29:42.469Z,18.04
2017-06-16T04:31:44.181Z,18.07
2017-06-16T04:33:46.540Z,17.92
2017-06-16T04:35:48.944Z,17.95
2017-06-16T04:37:50.698Z,18.13
2017-06-16T04:39:52.869Z,18.13
2017-06-16T04:41:54.718Z,18.07
2017-06-16T04:43:56.693Z,18.07
2017-06-16T04:45:58.481Z,18.18
2017-06-16T04:48:00.355Z,18.24
2017-06-16T04:50:02.097Z,18.21
2017-06-16T04:52:03.968Z,18.10
2017-06-16T04:54:05.885Z,18.18
2017-06-16T04:56:07.668Z,18.29
2017-06-16T04:58:09.406Z,18.37
2017-06-16T05:00:11.647Z,18.59
2017-06-16T05:02:13.573Z,18.61
2017-06-16T05:04:15.570Z,18.47
2017-06-16T05:06:17.290Z,18.54
2017-06-16T05:08:19.173Z,18.59
2017-06-16T05:10:21.620Z,18.68
2017-06-16T05:12:24.176Z,18.68
2017-06-16T05:14:26.055Z,18.54
2017-06-16T05:16:27.887Z,18.49
2017-06-16T05:18:29.665Z,18.61
2017-06-16T05:20:31.929Z,18.64
2017-06-16T05:22:33.785Z,18.62
2017-06-16T05:24:35.583Z,18.61
2017-06-16T05:26:37.461Z,18.72
2017-06-16T05:28:39.468Z,18.68
2017-06-16T05:30:41.260Z,18.80
2017-06-16T05:32:43.415Z,19.01
2017-06-16T05:34:45.800Z,18.99
2017-06-16T05:36:47.461Z,19.25
2017-06-16T05:38:49.298Z,19.15
2017-06-16T05:40:50.981Z,19.11
2017-06-16T05:42:52.762Z,19.13
2017-06-16T05:44:54.562Z,19.02
2017-06-16T05:46:56.647Z,19.21
2017-06-16T05:49:42.323Z,19.28
2017-06-16T05:51:43.985Z,19.01
2017-06-16T05:53:45.802Z,18.99
2017-06-16T05:55:47.758Z,19.06
2017-06-16T05:57:49.363Z,19.17
2017-06-16T05:59:51.190Z,19.13
2017-06-16T06:01:53.116Z,19.06
2017-06-16T06:04:35.639Z,18.76
2017-06-16T06:06:37.258Z,18.91
2017-06-16T06:08:38.737Z,19.13
2017-06-16T06:10:40.311Z,19.33
2017-06-16T06:12:41.947Z,19.50
2017-06-16T06:14:43.890Z,19.58
2017-06-16T06:16:46.719Z,19.60
2017-06-16T06:18:48.533Z,19.76
2017-06-16T06:20:50.425Z,19.66
2017-06-16T06:22:52.266Z,19.79
2017-06-16T06:24:53.971Z,19.87
2017-06-16T06:26:55.850Z,20.09
2017-06-16T06:28:58.574Z,20.24
2017-06-16T06:31:00.562Z,20.20
2017-06-16T06:33:02.271Z,20.16
2017-06-16T06:35:04.161Z,20.30
2017-06-16T06:37:06.086Z,20.31
2017-06-16T06:39:07.854Z,20.25
2017-06-16T06:41:09.766Z,20.12
2017-06-16T06:43:11.729Z,20.28
2017-06-16T06:45:13.624Z,20.50
2017-06-16T06:47:15.382Z,20.62
2017-06-16T06:49:17.187Z,21.50
2017-06-16T06:51:19.141Z,21.74
2017-06-16T06:53:21.055Z,21.71
2017-06-16T06:55:23.789Z,22.04
2017-06-16T06:57:26.990Z,22.07
2017-06-16T06:59:28.793Z,22.69
2017-06-16T07:01:30.917Z,23.85
2017-06-16T07:03:33.238Z,25.19
2017-06-16T07:05:35.288Z,25.49
2017-06-16T07:07:37.091Z,26.64
2017-06-16T07:09:39.422Z,26.06
2017-06-16T07:11:42.474Z,25.52
2017-06-16T07:13:44.335Z,25.06
2017-06-16T07:15:46.665Z,23.95
2017-06-16T07:17:49.659Z,23.19
2017-06-16T07:19:51.473Z,23.17
2017-06-16T07:22:34.067Z,22.25
2017-06-16T07:24:35.622Z,22.25
2017-06-16T07:26:37.819Z,22.27
2017-06-16T07:28:39.496Z,22.44
2017-06-16T07:30:41.335Z,22.39
2017-06-16T07:32:43.247Z,22.37
2017-06-16T07:34:45.100Z,22.44
2017-06-16T07:36:47.076Z,22.41
2017-06-16T07:38:49.602Z,22.41
2017-06-16T07:40:51.430Z,22.13
2017-06-16T07:42:53.462Z,22.07
2017-06-16T07:44:55.209Z,22.06
2017-06-16T07:46:57.863Z,21.74
2017-06-16T07:48:59.671Z,21.64
2017-06-16T07:51:01.556Z,21.75
2017-06-16T07:53:03.418Z,21.75
2017-06-16T07:55:05.119Z,21.75
2017-06-16T07:57:06.850Z,21.94
2017-06-16T07:59:08.653Z,22.02
2017-06-16T08:01:11.160Z,21.79
2017-06-16T08:03:13.067Z,21.75
2017-06-16T08:05:14.826Z,21.76
2017-06-16T08:07:16.875Z,22.10
2017-06-16T08:10:00.104Z,22.52
2017-06-16T08:12:01.738Z,22.50
2017-06-16T08:14:03.225Z,22.34
2017-06-16T08:16:05.109Z,22.46
2017-06-16T08:18:06.652Z,22.53
2017-06-16T08:20:08.810Z,22.44
2017-06-16T08:22:10.614Z,22.27
2017-06-16T08:24:12.569Z,22.10
2017-06-16T08:26:14.914Z,21.79
2017-06-16T08:28:16.763Z,21.60
2017-06-16T08:30:18.304Z,21.17
2017-06-16T08:32:20.038Z,20.91
2017-06-16T08:34:21.739Z,20.66
2017-06-16T08:36:23.863Z,20.35
2017-06-16T08:38:26.008Z,20.38
2017-06-16T08:40:27.645Z,20.80
2017-06-16T08:42:30.018Z,21.27
2017-06-16T08:44:33.408Z,21.57
2017-06-16T08:46:35.056Z,21.64
2017-06-16T08:48:37.085Z,21.71
2017-06-16T08:50:39.096Z,21.35
2017-06-16T08:52:40.861Z,21.11
2017-06-16T08:54:42.632Z,20.72
2017-06-16T08:56:44.723Z,20.81
2017-06-16T08:58:47.016Z,20.86
2017-06-16T09:00:48.692Z,20.77
2017-06-16T09:02:50.493Z,20.50
2017-06-16T09:04:53.023Z,20.21
2017-06-16T09:06:54.697Z,20.24
2017-06-16T09:08:56.546Z,20.10
2017-06-16T09:10:58.849Z,20.18
2017-06-16T09:13:00.653Z,20.23
2017-06-16T09:15:04.563Z,20.21
2017-06-16T09:17:06.960Z,20.43
2017-06-16T09:19:08.688Z,20.62
2017-06-16T09:21:10.677Z,21.01
2017-06-16T09:23:12.392Z,21.04
2017-06-16T09:25:13.904Z,20.80
2017-06-16T09:27:15.500Z,20.84
2017-06-16T09:29:17.435Z,20.91
2017-06-16T09:31:19.130Z,20.95
2017-06-16T09:33:21.421Z,20.65
2017-06-16T09:35:23.486Z,20.69
2017-06-16T09:37:26.998Z,20.58
2017-06-16T09:39:28.723Z,20.68
2017-06-16T09:41:30.596Z,20.76
2017-06-16T09:43:33.584Z,20.86
2017-06-16T09:45:35.406Z,20.72
2017-06-16T09:47:37.536Z,20.65
2017-06-16T09:49:39.747Z,20.35
2017-06-16T09:51:42.220Z,20.31
2017-06-16T09:53:44.316Z,20.38
2017-06-16T09:55:46.572Z,20.49
2017-06-16T09:57:48.693Z,20.61
2017-06-16T09:59:50.518Z,20.64
2017-06-16T10:01:52.455Z,20.54
2017-06-16T10:03:55.754Z,20.42
2017-06-16T10:05:57.474Z,20.39
2017-06-16T10:07:59.349Z,20.46
2017-06-16T10:10:01.934Z,20.38
2017-06-16T10:12:43.574Z,20.56
2017-06-16T10:14:45.151Z,20.41
2017-06-16T10:16:46.970Z,20.43
2017-06-16T10:18:48.631Z,20.51
2017-06-16T10:20:50.517Z,20.68
2017-06-16T10:22:52.385Z,21.01
2017-06-16T10:24:54.336Z,21.34
2017-06-16T10:26:59.549Z,21.46
2017-06-16T10:29:01.309Z,21.67
2017-06-16T16:20:33.624Z,20.50
2017-06-16T16:22:35.493Z,20.58
2017-06-16T16:24:36.842Z,20.54
2017-06-16T16:26:38.340Z,20.50
2017-06-16T16:28:39.764Z,20.53
2017-06-16T16:30:41.199Z,20.58
2017-06-16T16:32:42.636Z,20.54
2017-06-16T16:34:44.066Z,20.47
2017-06-16T16:36:45.594Z,20.43
2017-06-16T16:38:47.356Z,20.56
2017-06-16T16:40:50.336Z,20.59
2017-06-16T16:42:52.218Z,20.46
2017-06-16T16:44:55.179Z,20.49
2017-06-16T16:46:57.306Z,20.33
2017-06-16T16:48:59.204Z,20.39
2017-06-16T16:51:01.275Z,20.46
2017-06-16T16:53:02.936Z,20.51
2017-06-16T16:55:05.128Z,20.54
2017-06-16T16:57:06.790Z,20.49
2017-06-16T16:59:08.534Z,20.41
2017-06-16T17:01:10.230Z,20.30
2017-06-16T17:03:12.492Z,20.05
2017-06-16T17:05:14.396Z,20.02
2017-06-16T17:07:16.210Z,20.15
2017-06-16T17:09:18.127Z,20.23
2017-06-16T17:11:19.677Z,20.16
2017-06-16T17:13:21.180Z,20.15
2017-06-16T17:15:22.735Z,20.30
2017-06-16T17:17:24.210Z,20.35
2017-06-16T17:19:25.713Z,20.31
2017-06-16T17:21:27.252Z,20.47
2017-06-16T17:23:29.357Z,20.47
2017-06-16T17:25:32.040Z,20.43
2017-06-16T17:27:33.832Z,20.42
2017-06-16T17:29:35.694Z,20.33
2017-06-16T17:31:37.759Z,20.23
2017-06-16T17:33:40.392Z,20.23
2017-06-16T17:35:42.225Z,20.20
2017-06-16T17:37:44.140Z,20.23
2017-06-16T17:39:46.777Z,20.35
2017-06-16T17:41:49.198Z,20.43
2017-06-16T17:43:51.082Z,20.34
2017-06-16T17:45:53.717Z,20.24
2017-06-16T17:47:55.886Z,20.33
2017-06-16T17:49:57.915Z,20.38
2017-06-16T17:51:59.778Z,20.38
2017-06-16T17:54:01.494Z,20.41
2017-06-16T17:56:03.312Z,20.47
2017-06-16T17:58:05.193Z,20.51
2017-06-16T18:00:06.993Z,20.50
2017-06-16T18:02:08.988Z,20.50
2017-06-16T18:04:10.765Z,20.38
2017-06-16T18:06:13.026Z,20.43
2017-06-16T18:08:14.747Z,20.02
2017-06-16T18:10:17.268Z,20.09
2017-06-16T18:12:19.408Z,20.18
2017-06-16T18:14:21.131Z,20.27
2017-06-16T18:16:23.067Z,20.41
2017-06-16T18:18:24.841Z,20.28
2017-06-16T18:20:26.655Z,20.27
2017-06-16T18:22:28.559Z,20.30
2017-06-16T18:24:30.353Z,20.27
2017-06-16T18:26:32.162Z,20.31
2017-06-16T18:28:33.961Z,20.30
2017-06-16T18:30:35.714Z,20.13
2017-06-16T18:32:37.481Z,19.98
2017-06-16T18:34:39.329Z,19.97
2017-06-16T18:36:41.195Z,19.97
2017-06-16T18:38:42.981Z,19.90
2017-06-16T18:40:44.745Z,19.83
2017-06-16T18:42:46.770Z,19.83
2017-06-16T18:44:48.604Z,19.83
2017-06-16T18:46:51.160Z,19.86
2017-06-16T18:48:53.281Z,19.93
2017-06-16T18:50:55.061Z,19.88
2017-06-16T18:52:56.890Z,19.90
2017-06-16T18:54:58.896Z,19.93
2017-06-16T18:57:00.831Z,19.88
2017-06-16T18:59:02.484Z,19.97
2017-06-16T19:01:04.102Z,19.98
2017-06-16T19:03:05.625Z,19.84
2017-06-16T19:05:07.131Z,19.86
2017-06-16T19:07:09.706Z,19.88
2017-06-16T19:09:11.733Z,20.00
2017-06-16T19:11:13.390Z,19.98
2017-06-16T19:13:15.143Z,19.95
2017-06-16T19:15:16.792Z,20.03
2017-06-16T19:17:18.718Z,20.03
2017-06-16T19:19:20.498Z,19.87
2017-06-16T19:21:22.886Z,19.87
2017-06-16T19:23:24.832Z,19.86
2017-06-16T19:25:26.817Z,19.84
2017-06-16T19:27:29.568Z,19.86
2017-06-16T19:29:31.288Z,19.88
2017-06-16T19:31:33.190Z,19.78
2017-06-16T19:33:34.919Z,19.84
2017-06-16T19:35:36.522Z,19.79
2017-06-16T19:37:38.229Z,19.88
2017-06-16T19:39:39.733Z,19.80
2017-06-16T19:41:41.324Z,19.78
2017-06-16T19:43:43.141Z,19.73
2017-06-16T19:45:44.676Z,19.61
2017-06-16T19:47:46.284Z,19.39
2017-06-16T19:49:47.768Z,19.35
2017-06-16T19:51:49.291Z,19.35
2017-06-16T19:53:51.002Z,19.25
2017-06-16T19:56:00.201Z,19.23
2017-06-16T20:00:12.798Z,19.23
2017-06-16T20:02:14.869Z,19.28
2017-06-16T20:04:16.974Z,19.25
2017-06-16T20:06:19.057Z,19.21
2017-06-16T20:08:20.909Z,19.10
2017-06-16T20:10:22.679Z,19.08
2017-06-16T20:12:24.661Z,19.06
2017-06-16T20:14:26.831Z,18.92
2017-06-16T20:16:28.904Z,18.76
2017-06-16T20:18:31.789Z,18.79
2017-06-16T20:20:33.869Z,18.73
2017-06-16T20:22:35.998Z,18.62
2017-06-16T20:24:37.891Z,18.65
2017-06-16T20:26:39.782Z,18.55
2017-06-16T20:28:41.555Z,18.59
2017-06-16T20:30:43.563Z,18.39
2017-06-16T20:32:45.721Z,18.47
2017-06-16T20:34:47.484Z,18.54
2017-06-16T20:36:49.327Z,18.39
2017-06-16T20:38:51.087Z,18.49
2017-06-16T20:40:52.859Z,18.40
2017-06-16T20:42:55.092Z,18.47
2017-06-16T20:44:57.257Z,18.43
2017-06-16T20:46:59.047Z,18.40
2017-06-16T20:49:00.767Z,18.40
2017-06-16T20:51:02.503Z,18.33
2017-06-16T20:53:04.211Z,18.33
2017-06-16T20:55:06.556Z,18.36
2017-06-16T20:57:08.988Z,18.29
2017-06-16T20:59:10.468Z,18.31
2017-06-16T21:01:12.029Z,18.29
2017-06-16T21:03:13.565Z,18.27
2017-06-16T21:05:15.736Z,18.18
2017-06-16T21:07:17.407Z,18.19
2017-06-16T21:09:19.649Z,17.99
2017-06-16T21:11:21.990Z,17.99
2017-06-16T21:13:23.587Z,17.91
2017-06-16T21:15:25.372Z,17.91
2017-06-16T21:17:27.005Z,17.76
2017-06-16T21:19:29.127Z,17.79
2017-06-16T21:21:30.948Z,17.82
2017-06-16T21:23:32.646Z,17.74
2017-06-16T21:25:34.950Z,17.81
2017-06-16T21:27:36.752Z,17.63
2017-06-16T21:29:38.299Z,17.74
2017-06-16T21:31:39.854Z,17.64
2017-06-16T21:33:41.386Z,17.74
2017-06-16T21:35:42.949Z,17.64
2017-06-16T21:37:44.932Z,17.62
2017-06-16T21:39:46.731Z,17.47
2017-06-16T21:41:49.045Z,17.36
2017-06-16T21:43:51.298Z,17.22
2017-06-16T21:45:56.213Z,17.22
2017-06-16T21:47:58.692Z,17.11
2017-06-16T21:50:00.404Z,17.11
2017-06-16T21:52:02.675Z,17.00
2017-06-16T21:54:05.063Z,16.93
2017-06-16T21:56:07.407Z,16.93
2017-06-16T21:58:09.749Z,16.92
2017-06-16T22:00:11.958Z,16.95
2017-06-16T22:02:13.726Z,16.89
2017-06-16T22:04:15.480Z,16.88
2017-06-16T22:06:17.327Z,16.92
2017-06-16T22:08:19.544Z,16.68
2017-06-16T22:10:21.349Z,16.65
2017-06-16T22:12:23.494Z,16.49
2017-06-16T22:14:25.226Z,16.52
2017-06-16T22:16:27.576Z,16.42
2017-06-16T22:18:29.890Z,16.35
2017-06-16T22:20:31.575Z,16.27
2017-06-16T22:22:33.379Z,16.22
2017-06-16T22:24:35.757Z,16.30
2017-06-16T22:26:37.539Z,16.22
2017-06-16T22:28:39.478Z,16.31
2017-06-16T22:30:41.803Z,16.25
2017-06-16T22:32:43.512Z,16.34
2017-06-16T22:34:45.023Z,16.45
2017-06-16T22:36:46.679Z,16.44
2017-06-16T22:38:48.177Z,16.40
2017-06-16T22:40:50.346Z,16.35
2017-06-16T22:42:52.616Z,16.20
2017-06-16T22:44:54.338Z,16.09
2017-06-16T22:46:56.032Z,16.22
2017-06-16T22:48:57.774Z,16.09
2017-06-16T22:50:59.578Z,16.18
2017-06-16T22:53:02.020Z,16.26
2017-06-16T22:55:03.768Z,16.27
2017-06-16T22:57:05.430Z,16.23
2017-06-16T22:59:07.248Z,16.23
2017-06-16T23:01:10.398Z,16.25
2017-06-16T23:03:12.686Z,16.11
2017-06-16T23:05:14.430Z,16.12
2017-06-16T23:07:16.811Z,15.89
2017-06-16T23:09:19.059Z,15.93
2017-06-16T23:11:20.740Z,15.89
2017-06-16T23:13:22.970Z,15.82
2017-06-16T23:15:25.327Z,15.78
2017-06-16T23:17:27.732Z,15.93
2017-06-16T23:19:29.468Z,15.93
2017-06-16T23:21:31.747Z,15.89
2017-06-16T23:23:34.085Z,15.74
2017-06-16T23:25:36.427Z,15.68
2017-06-16T23:27:38.172Z,15.68
2017-06-16T23:29:40.333Z,15.67
2017-06-16T23:31:42.538Z,15.61
2017-06-16T23:33:44.165Z,15.48
2017-06-16T23:35:46.001Z,15.41
2017-06-16T23:37:47.758Z,15.35
2017-06-16T23:39:49.581Z,15.33
2017-06-16T23:41:51.348Z,15.28
2017-06-16T23:43:53.682Z,15.39
2017-06-16T23:45:56.016Z,15.21
2017-06-16T23:47:58.252Z,15.19
2017-06-16T23:49:59.786Z,15.21
2017-06-16T23:52:02.107Z,15.21
2017-06-16T23:54:03.759Z,15.31
2017-06-16T23:56:05.935Z,15.49
2017-06-16T23:58:08.178Z,15.66
